sensor_id;sensor_type;location;lat;lon;timestamp;pressure;altitude;pressure_sealevel;temperature;humidity
59009;BME280;44794;42.652;23.318;2022-10-16T00:00:56;95061.59;;;6.97;95.85
59009;BME280;44794;42.652;23.318;2022-10-16T00:03:22;95060.00;;;6.95;95.75
59009;BME280;44794;42.652;23.318;2022-10-16T00:05:47;95063.81;;;6.88;95.80
59009;BME280;44794;42.652;23.318;2022-10-16T00:08:13;95067.59;;;6.82;95.65
59009;BME280;44794;42.652;23.318;2022-10-16T00:10:39;95069.78;;;6.73;95.97
59009;BME280;44794;42.652;23.318;2022-10-16T00:13:05;95059.31;;;6.76;96.33
59009;BME280;44794;42.652;23.318;2022-10-16T00:15:34;95064.38;;;6.77;96.64
59009;BME280;44794;42.652;23.318;2022-10-16T00:18:01;95054.25;;;6.74;96.82
59009;BME280;44794;42.652;23.318;2022-10-16T00:20:27;95056.06;;;6.72;97.02
59009;BME280;44794;42.652;23.318;2022-10-16T00:22:52;95058.63;;;6.72;97.12
59009;BME280;44794;42.652;23.318;2022-10-16T00:25:18;95062.13;;;6.71;97.42
59009;BME280;44794;42.652;23.318;2022-10-16T00:27:44;95056.16;;;6.71;97.66
59009;BME280;44794;42.652;23.318;2022-10-16T00:30:09;95060.56;;;6.84;98.10
59009;BME280;44794;42.652;23.318;2022-10-16T00:32:35;95061.22;;;6.72;98.32
59009;BME280;44794;42.652;23.318;2022-10-16T00:35:00;95069.09;;;6.86;98.42
59009;BME280;44794;42.652;23.318;2022-10-16T00:37:26;95065.28;;;6.76;98.36
59009;BME280;44794;42.652;23.318;2022-10-16T00:39:51;95065.63;;;6.70;98.36
59009;BME280;44794;42.652;23.318;2022-10-16T00:42:18;95069.19;;;6.68;98.48
59009;BME280;44794;42.652;23.318;2022-10-16T00:47:43;95061.84;;;6.61;98.51
59009;BME280;44794;42.652;23.318;2022-10-16T00:50:16;95057.69;;;6.58;98.47
59009;BME280;44794;42.652;23.318;2022-10-16T00:52:47;95059.59;;;6.55;98.47
59009;BME280;44794;42.652;23.318;2022-10-16T00:55:14;95064.00;;;6.53;98.48
59009;BME280;44794;42.652;23.318;2022-10-16T00:57:39;95056.25;;;6.53;98.47
59009;BME280;44794;42.652;23.318;2022-10-16T01:00:08;95067.78;;;6.46;98.43
59009;BME280;44794;42.652;23.318;2022-10-16T01:02:34;95073.09;;;6.43;98.53
59009;BME280;44794;42.652;23.318;2022-10-16T01:05:00;95083.59;;;6.40;98.45
59009;BME280;44794;42.652;23.318;2022-10-16T01:07:50;95075.91;;;6.38;98.45
59009;BME280;44794;42.652;23.318;2022-10-16T01:10:38;95073.41;;;6.37;98.57
59009;BME280;44794;42.652;23.318;2022-10-16T01:13:11;95082.28;;;6.31;98.51
59009;BME280;44794;42.652;23.318;2022-10-16T01:15:48;95080.84;;;6.26;98.52
59009;BME280;44794;42.652;23.318;2022-10-16T01:18:27;95076.91;;;6.19;98.40
59009;BME280;44794;42.652;23.318;2022-10-16T01:21:09;95070.38;;;6.12;98.22
59009;BME280;44794;42.652;23.318;2022-10-16T01:23:51;95069.94;;;6.04;97.85
59009;BME280;44794;42.652;23.318;2022-10-16T01:29:16;95073.63;;;5.82;97.60
59009;BME280;44794;42.652;23.318;2022-10-16T01:31:48;95076.34;;;5.79;97.64
59009;BME280;44794;42.652;23.318;2022-10-16T01:37:09;95072.22;;;5.75;97.94
59009;BME280;44794;42.652;23.318;2022-10-16T01:39:37;95077.38;;;5.75;98.05
59009;BME280;44794;42.652;23.318;2022-10-16T01:42:09;95071.66;;;5.68;98.24
59009;BME280;44794;42.652;23.318;2022-10-16T01:44:38;95064.00;;;5.67;98.36
59009;BME280;44794;42.652;23.318;2022-10-16T01:47:05;95064.84;;;5.67;98.51
59009;BME280;44794;42.652;23.318;2022-10-16T01:49:35;95068.63;;;5.60;98.68
59009;BME280;44794;42.652;23.318;2022-10-16T01:52:06;95070.16;;;5.64;99.05
59009;BME280;44794;42.652;23.318;2022-10-16T01:54:35;95071.38;;;5.74;99.37
59009;BME280;44794;42.652;23.318;2022-10-16T01:57:04;95075.69;;;5.74;99.54
59009;BME280;44794;42.652;23.318;2022-10-16T01:59:33;95068.69;;;5.77;99.98
59009;BME280;44794;42.652;23.318;2022-10-16T02:02:05;95068.59;;;5.79;100.00
59009;BME280;44794;42.652;23.318;2022-10-16T02:04:38;95076.03;;;5.85;100.00
59009;BME280;44794;42.652;23.318;2022-10-16T02:07:05;95066.13;;;5.76;100.00
59009;BME280;44794;42.652;23.318;2022-10-16T02:09:33;95076.94;;;5.84;100.00
59009;BME280;44794;42.652;23.318;2022-10-16T02:12:01;95074.53;;;5.81;100.00
59009;BME280;44794;42.652;23.318;2022-10-16T02:14:29;95068.16;;;5.88;100.00
59009;BME280;44794;42.652;23.318;2022-10-16T02:16:54;95077.06;;;5.99;100.00
59009;BME280;44794;42.652;23.318;2022-10-16T02:19:21;95072.50;;;6.04;100.00
59009;BME280;44794;42.652;23.318;2022-10-16T02:22:05;95073.19;;;6.07;100.00
59009;BME280;44794;42.652;23.318;2022-10-16T02:29:52;95096.22;;;5.94;100.00
59009;BME280;44794;42.652;23.318;2022-10-16T02:32:23;95095.66;;;5.87;100.00
59009;BME280;44794;42.652;23.318;2022-10-16T02:34:50;95098.41;;;5.84;100.00
59009;BME280;44794;42.652;23.318;2022-10-16T02:37:17;95088.94;;;5.85;100.00
59009;BME280;44794;42.652;23.318;2022-10-16T02:39:44;95089.91;;;5.82;100.00
59009;BME280;44794;42.652;23.318;2022-10-16T02:42:12;95096.75;;;5.83;100.00
59009;BME280;44794;42.652;23.318;2022-10-16T02:44:38;95094.84;;;5.87;100.00
59009;BME280;44794;42.652;23.318;2022-10-16T02:47:03;95097.13;;;5.93;100.00
59009;BME280;44794;42.652;23.318;2022-10-16T02:49:29;95096.34;;;5.91;100.00
59009;BME280;44794;42.652;23.318;2022-10-16T02:51:54;95096.13;;;5.95;100.00
59009;BME280;44794;42.652;23.318;2022-10-16T02:54:20;95101.91;;;6.00;100.00
59009;BME280;44794;42.652;23.318;2022-10-16T02:56:45;95109.03;;;5.95;100.00
59009;BME280;44794;42.652;23.318;2022-10-16T02:59:11;95107.22;;;5.97;100.00
59009;BME280;44794;42.652;23.318;2022-10-16T03:01:36;95102.97;;;5.96;100.00
59009;BME280;44794;42.652;23.318;2022-10-16T03:04:02;95101.00;;;6.01;100.00
59009;BME280;44794;42.652;23.318;2022-10-16T03:06:27;95094.84;;;6.03;100.00
59009;BME280;44794;42.652;23.318;2022-10-16T03:08:53;95092.06;;;6.08;100.00
59009;BME280;44794;42.652;23.318;2022-10-16T03:11:18;95086.22;;;6.04;100.00
59009;BME280;44794;42.652;23.318;2022-10-16T03:13:43;95108.38;;;6.08;100.00
59009;BME280;44794;42.652;23.318;2022-10-16T03:16:09;95106.09;;;6.02;100.00
59009;BME280;44794;42.652;23.318;2022-10-16T03:18:34;95106.41;;;6.13;100.00
59009;BME280;44794;42.652;23.318;2022-10-16T03:21:00;95109.06;;;6.12;100.00
59009;BME280;44794;42.652;23.318;2022-10-16T03:23:25;95107.69;;;6.05;100.00
59009;BME280;44794;42.652;23.318;2022-10-16T03:25:51;95117.78;;;6.09;100.00
59009;BME280;44794;42.652;23.318;2022-10-16T03:28:16;95121.97;;;6.12;100.00
59009;BME280;44794;42.652;23.318;2022-10-16T03:30:43;95118.00;;;6.05;100.00
59009;BME280;44794;42.652;23.318;2022-10-16T03:33:08;95125.09;;;6.00;100.00
59009;BME280;44794;42.652;23.318;2022-10-16T03:35:34;95133.78;;;5.99;100.00
59009;BME280;44794;42.652;23.318;2022-10-16T03:37:59;95136.47;;;5.96;100.00
59009;BME280;44794;42.652;23.318;2022-10-16T03:40:25;95135.72;;;5.94;100.00
59009;BME280;44794;42.652;23.318;2022-10-16T03:42:51;95137.69;;;5.89;100.00
59009;BME280;44794;42.652;23.318;2022-10-16T03:45:16;95135.22;;;5.86;100.00
59009;BME280;44794;42.652;23.318;2022-10-16T03:47:42;95124.41;;;5.80;100.00
59009;BME280;44794;42.652;23.318;2022-10-16T03:50:08;95129.03;;;5.72;100.00
59009;BME280;44794;42.652;23.318;2022-10-16T03:52:33;95125.44;;;5.57;100.00
59009;BME280;44794;42.652;23.318;2022-10-16T03:54:59;95126.97;;;5.61;100.00
59009;BME280;44794;42.652;23.318;2022-10-16T03:57:25;95121.31;;;5.53;100.00
59009;BME280;44794;42.652;23.318;2022-10-16T03:59:50;95115.19;;;5.56;100.00
59009;BME280;44794;42.652;23.318;2022-10-16T04:02:16;95117.34;;;5.46;100.00
59009;BME280;44794;42.652;23.318;2022-10-16T04:04:41;95117.28;;;5.48;100.00
59009;BME280;44794;42.652;23.318;2022-10-16T04:07:07;95117.34;;;5.46;100.00
59009;BME280;44794;42.652;23.318;2022-10-16T04:09:33;95112.22;;;5.46;100.00
59009;BME280;44794;42.652;23.318;2022-10-16T04:11:58;95116.88;;;5.38;100.00
59009;BME280;44794;42.652;23.318;2022-10-16T04:14:24;95122.88;;;5.39;100.00
59009;BME280;44794;42.652;23.318;2022-10-16T04:16:49;95124.59;;;5.38;100.00
59009;BME280;44794;42.652;23.318;2022-10-16T04:19:15;95113.47;;;5.38;100.00
59009;BME280;44794;42.652;23.318;2022-10-16T04:21:40;95125.50;;;5.37;100.00
59009;BME280;44794;42.652;23.318;2022-10-16T04:24:05;95117.78;;;5.37;100.00
59009;BME280;44794;42.652;23.318;2022-10-16T04:26:31;95115.06;;;5.40;100.00
59009;BME280;44794;42.652;23.318;2022-10-16T04:28:56;95123.78;;;5.38;100.00
59009;BME280;44794;42.652;23.318;2022-10-16T04:31:22;95131.97;;;5.27;100.00
59009;BME280;44794;42.652;23.318;2022-10-16T04:33:47;95131.22;;;5.25;100.00
59009;BME280;44794;42.652;23.318;2022-10-16T04:36:13;95128.63;;;5.25;100.00
59009;BME280;44794;42.652;23.318;2022-10-16T04:38:39;95134.56;;;5.27;100.00
59009;BME280;44794;42.652;23.318;2022-10-16T04:41:06;95135.47;;;5.26;100.00
59009;BME280;44794;42.652;23.318;2022-10-16T04:43:32;95130.09;;;5.31;100.00
59009;BME280;44794;42.652;23.318;2022-10-16T04:45:58;95138.13;;;5.25;100.00
59009;BME280;44794;42.652;23.318;2022-10-16T04:48:24;95141.78;;;5.19;100.00
59009;BME280;44794;42.652;23.318;2022-10-16T04:50:49;95147.06;;;5.17;100.00
59009;BME280;44794;42.652;23.318;2022-10-16T04:53:15;95148.22;;;5.10;100.00
59009;BME280;44794;42.652;23.318;2022-10-16T04:55:42;95154.09;;;5.13;100.00
59009;BME280;44794;42.652;23.318;2022-10-16T04:58:07;95158.28;;;5.16;100.00
59009;BME280;44794;42.652;23.318;2022-10-16T05:00:33;95154.78;;;5.17;100.00
59009;BME280;44794;42.652;23.318;2022-10-16T05:02:59;95166.22;;;5.29;100.00
59009;BME280;44794;42.652;23.318;2022-10-16T05:05:26;95162.16;;;5.81;100.00
59009;BME280;44794;42.652;23.318;2022-10-16T05:07:51;95162.16;;;5.97;100.00
59009;BME280;44794;42.652;23.318;2022-10-16T05:10:17;95168.72;;;5.86;100.00
59009;BME280;44794;42.652;23.318;2022-10-16T05:12:43;95171.75;;;5.77;100.00
59009;BME280;44794;42.652;23.318;2022-10-16T05:15:09;95181.25;;;5.75;100.00
59009;BME280;44794;42.652;23.318;2022-10-16T05:17:34;95179.59;;;5.74;100.00
59009;BME280;44794;42.652;23.318;2022-10-16T05:19:59;95176.75;;;5.80;100.00
59009;BME280;44794;42.652;23.318;2022-10-16T05:22:25;95179.03;;;6.04;100.00
59009;BME280;44794;42.652;23.318;2022-10-16T05:24:50;95163.94;;;7.15;100.00
59009;BME280;44794;42.652;23.318;2022-10-16T05:27:16;95150.06;;;8.41;100.00
59009;BME280;44794;42.652;23.318;2022-10-16T05:29:48;95135.72;;;9.36;100.00
59009;BME280;44794;42.652;23.318;2022-10-16T05:32:15;95138.72;;;10.12;100.00
59009;BME280;44794;42.652;23.318;2022-10-16T05:34:41;95153.59;;;10.22;100.00
59009;BME280;44794;42.652;23.318;2022-10-16T05:37:06;95186.97;;;10.93;97.62
59009;BME280;44794;42.652;23.318;2022-10-16T05:39:32;95226.78;;;10.94;91.76
59009;BME280;44794;42.652;23.318;2022-10-16T05:41:57;95244.09;;;10.81;89.44
59009;BME280;44794;42.652;23.318;2022-10-16T05:44:23;95248.44;;;10.28;89.32
59009;BME280;44794;42.652;23.318;2022-10-16T05:46:48;95256.50;;;9.68;87.42
59009;BME280;44794;42.652;23.318;2022-10-16T05:49:14;95268.38;;;9.28;86.81
59009;BME280;44794;42.652;23.318;2022-10-16T05:51:39;95266.66;;;8.84;87.41
59009;BME280;44794;42.652;23.318;2022-10-16T05:54:05;95275.63;;;8.63;87.03
59009;BME280;44794;42.652;23.318;2022-10-16T05:56:30;95280.22;;;8.43;86.74
59009;BME280;44794;42.652;23.318;2022-10-16T05:58:56;95284.97;;;8.35;86.38
59009;BME280;44794;42.652;23.318;2022-10-16T06:01:21;95289.47;;;8.31;85.96
59009;BME280;44794;42.652;23.318;2022-10-16T06:03:52;95300.41;;;8.36;84.92
59009;BME280;44794;42.652;23.318;2022-10-16T06:06:21;95311.72;;;8.35;84.93
59009;BME280;44794;42.652;23.318;2022-10-16T06:08:47;95315.03;;;8.37;84.97
59009;BME280;44794;42.652;23.318;2022-10-16T06:11:17;95313.09;;;8.41;84.98
59009;BME280;44794;42.652;23.318;2022-10-16T06:13:44;95313.97;;;8.41;85.00
59009;BME280;44794;42.652;23.318;2022-10-16T06:16:11;95317.28;;;8.43;84.93
59009;BME280;44794;42.652;23.318;2022-10-16T06:18:37;95319.72;;;8.46;85.17
59009;BME280;44794;42.652;23.318;2022-10-16T06:21:20;95327.34;;;8.49;84.70
59009;BME280;44794;42.652;23.318;2022-10-16T06:23:46;95323.31;;;8.59;84.65
59009;BME280;44794;42.652;23.318;2022-10-16T06:26:14;95324.53;;;8.68;84.65
59009;BME280;44794;42.652;23.318;2022-10-16T06:28:40;95326.72;;;8.75;84.78
59009;BME280;44794;42.652;23.318;2022-10-16T06:31:08;95326.53;;;8.78;84.43
59009;BME280;44794;42.652;23.318;2022-10-16T06:33:35;95328.81;;;8.84;83.86
59009;BME280;44794;42.652;23.318;2022-10-16T06:36:09;95334.56;;;8.89;83.34
59009;BME280;44794;42.652;23.318;2022-10-16T06:38:35;95336.66;;;8.98;83.46
59009;BME280;44794;42.652;23.318;2022-10-16T06:41:01;95338.66;;;9.08;83.39
59009;BME280;44794;42.652;23.318;2022-10-16T06:43:29;95343.47;;;9.14;83.05
59009;BME280;44794;42.652;23.318;2022-10-16T06:45:58;95338.41;;;9.27;82.79
59009;BME280;44794;42.652;23.318;2022-10-16T06:48:25;95351.78;;;9.35;82.86
59009;BME280;44794;42.652;23.318;2022-10-16T06:51:19;95349.13;;;9.36;81.99
59009;BME280;44794;42.652;23.318;2022-10-16T06:53:45;95358.47;;;9.39;80.99
59009;BME280;44794;42.652;23.318;2022-10-16T06:56:16;95368.84;;;9.39;80.52
59009;BME280;44794;42.652;23.318;2022-10-16T06:58:43;95376.25;;;9.45;80.93
59009;BME280;44794;42.652;23.318;2022-10-16T07:01:10;95381.75;;;9.54;80.26
59009;BME280;44794;42.652;23.318;2022-10-16T07:03:37;95377.50;;;9.53;79.94
59009;BME280;44794;42.652;23.318;2022-10-16T07:06:05;95384.34;;;9.54;79.71
59009;BME280;44794;42.652;23.318;2022-10-16T07:08:35;95378.44;;;9.66;79.88
59009;BME280;44794;42.652;23.318;2022-10-16T07:11:06;95377.16;;;9.73;79.86
59009;BME280;44794;42.652;23.318;2022-10-16T07:13:39;95387.41;;;9.90;77.85
59009;BME280;44794;42.652;23.318;2022-10-16T07:16:11;95382.69;;;9.96;77.91
59009;BME280;44794;42.652;23.318;2022-10-16T07:18:37;95392.41;;;9.93;77.60
59009;BME280;44794;42.652;23.318;2022-10-16T07:21:13;95399.78;;;10.00;77.28
59009;BME280;44794;42.652;23.318;2022-10-16T07:23:39;95396.84;;;10.20;76.84
59009;BME280;44794;42.652;23.318;2022-10-16T07:26:05;95386.47;;;10.34;76.39
59009;BME280;44794;42.652;23.318;2022-10-16T07:28:32;95393.97;;;10.52;76.93
59009;BME280;44794;42.652;23.318;2022-10-16T07:31:06;95404.63;;;10.62;74.90
59009;BME280;44794;42.652;23.318;2022-10-16T07:33:32;95411.03;;;10.70;73.70
59009;BME280;44794;42.652;23.318;2022-10-16T07:35:58;95401.94;;;10.77;73.50
59009;BME280;44794;42.652;23.318;2022-10-16T07:38:24;95404.97;;;10.98;73.52
59009;BME280;44794;42.652;23.318;2022-10-16T07:40:58;95407.94;;;11.06;74.04
59009;BME280;44794;42.652;23.318;2022-10-16T07:43:25;95404.00;;;11.13;73.58
59009;BME280;44794;42.652;23.318;2022-10-16T07:45:51;95410.63;;;11.30;73.38
59009;BME280;44794;42.652;23.318;2022-10-16T07:48:17;95423.25;;;11.36;71.21
59009;BME280;44794;42.652;23.318;2022-10-16T07:50:43;95418.44;;;11.30;71.83
59009;BME280;44794;42.652;23.318;2022-10-16T07:53:09;95425.25;;;11.45;71.92
59009;BME280;44794;42.652;23.318;2022-10-16T07:55:35;95420.28;;;11.42;72.08
59009;BME280;44794;42.652;23.318;2022-10-16T07:58:00;95422.13;;;11.54;71.76
59009;BME280;44794;42.652;23.318;2022-10-16T08:00:26;95423.72;;;11.69;71.48
59009;BME280;44794;42.652;23.318;2022-10-16T08:02:51;95424.13;;;11.63;70.45
59009;BME280;44794;42.652;23.318;2022-10-16T08:05:17;95428.31;;;11.78;70.31
59009;BME280;44794;42.652;23.318;2022-10-16T08:07:42;95432.41;;;11.82;70.05
59009;BME280;44794;42.652;23.318;2022-10-16T08:10:19;95437.31;;;11.87;69.32
59009;BME280;44794;42.652;23.318;2022-10-16T08:12:45;95431.25;;;11.86;69.41
59009;BME280;44794;42.652;23.318;2022-10-16T08:15:10;95429.63;;;11.98;69.48
59009;BME280;44794;42.652;23.318;2022-10-16T08:17:36;95435.97;;;12.06;68.89
59009;BME280;44794;42.652;23.318;2022-10-16T08:20:02;95431.84;;;12.16;68.73
59009;BME280;44794;42.652;23.318;2022-10-16T08:22:28;95431.94;;;12.27;67.97
59009;BME280;44794;42.652;23.318;2022-10-16T08:24:53;95430.72;;;12.32;68.53
59009;BME280;44794;42.652;23.318;2022-10-16T08:27:19;95430.72;;;12.45;67.58
59009;BME280;44794;42.652;23.318;2022-10-16T08:29:44;95432.47;;;12.44;67.00
59009;BME280;44794;42.652;23.318;2022-10-16T08:32:10;95431.34;;;12.36;67.56
59009;BME280;44794;42.652;23.318;2022-10-16T08:34:35;95434.16;;;12.45;67.42
59009;BME280;44794;42.652;23.318;2022-10-16T08:37:01;95422.38;;;12.65;66.25
59009;BME280;44794;42.652;23.318;2022-10-16T08:39:27;95426.13;;;12.85;64.72
59009;BME280;44794;42.652;23.318;2022-10-16T08:47:06;95434.50;;;13.26;61.98
59009;BME280;44794;42.652;23.318;2022-10-16T08:49:40;95435.84;;;13.32;62.00
59009;BME280;44794;42.652;23.318;2022-10-16T08:52:11;95431.25;;;13.35;61.74
59009;BME280;44794;42.652;23.318;2022-10-16T08:54:41;95444.34;;;13.46;59.50
59009;BME280;44794;42.652;23.318;2022-10-16T08:57:20;95440.78;;;13.59;59.86
59009;BME280;44794;42.652;23.318;2022-10-16T08:59:46;95448.03;;;13.67;60.07
59009;BME280;44794;42.652;23.318;2022-10-16T09:02:34;95459.97;;;13.82;57.23
59009;BME280;44794;42.652;23.318;2022-10-16T09:07:32;95460.53;;;13.98;55.22
59009;BME280;44794;42.652;23.318;2022-10-16T09:13:36;95448.28;;;14.11;54.24
59009;BME280;44794;42.652;23.318;2022-10-16T09:16:18;95437.38;;;14.17;54.28
59009;BME280;44794;42.652;23.318;2022-10-16T09:18:54;95446.41;;;14.24;54.56
59009;BME280;44794;42.652;23.318;2022-10-16T09:21:28;95445.28;;;14.38;53.80
59009;BME280;44794;42.652;23.318;2022-10-16T09:23:59;95444.34;;;14.39;51.50
59009;BME280;44794;42.652;23.318;2022-10-16T09:26:25;95449.91;;;14.46;51.74
59009;BME280;44794;42.652;23.318;2022-10-16T09:28:54;95459.94;;;14.52;51.97
59009;BME280;44794;42.652;23.318;2022-10-16T09:31:22;95449.09;;;14.45;50.96
59009;BME280;44794;42.652;23.318;2022-10-16T09:33:54;95453.38;;;14.46;51.41
59009;BME280;44794;42.652;23.318;2022-10-16T09:36:21;95457.06;;;14.44;49.99
59009;BME280;44794;42.652;23.318;2022-10-16T09:38:48;95446.75;;;14.53;50.70
59009;BME280;44794;42.652;23.318;2022-10-16T09:41:20;95445.94;;;14.64;49.94
59009;BME280;44794;42.652;23.318;2022-10-16T09:43:54;95448.19;;;14.68;50.33
59009;BME280;44794;42.652;23.318;2022-10-16T09:46:36;95448.28;;;14.67;50.34
59009;BME280;44794;42.652;23.318;2022-10-16T09:49:04;95442.03;;;14.80;50.23
59009;BME280;44794;42.652;23.318;2022-10-16T09:51:33;95437.75;;;14.79;48.82
59009;BME280;44794;42.652;23.318;2022-10-16T09:54:20;95435.59;;;14.84;49.22
59009;BME280;44794;42.652;23.318;2022-10-16T09:56:47;95436.09;;;14.89;49.02
59009;BME280;44794;42.652;23.318;2022-10-16T10:01:54;95436.19;;;14.88;49.45
59009;BME280;44794;42.652;23.318;2022-10-16T10:04:22;95437.38;;;14.84;48.71
59009;BME280;44794;42.652;23.318;2022-10-16T10:06:53;95436.69;;;14.93;48.95
59009;BME280;44794;42.652;23.318;2022-10-16T10:09:28;95430.38;;;14.95;48.80
59009;BME280;44794;42.652;23.318;2022-10-16T10:12:26;95421.34;;;14.99;48.38
59009;BME280;44794;42.652;23.318;2022-10-16T10:14:55;95421.69;;;15.05;48.90
59009;BME280;44794;42.652;23.318;2022-10-16T10:17:23;95421.47;;;14.98;48.21
59009;BME280;44794;42.652;23.318;2022-10-16T10:20:29;95426.94;;;15.05;47.84
59009;BME280;44794;42.652;23.318;2022-10-16T10:22:46;95418.13;;;15.17;48.70
59009;BME280;44794;42.652;23.318;2022-10-16T10:25:18;95424.78;;;15.21;48.16
59009;BME280;44794;42.652;23.318;2022-10-16T10:30:47;95427.41;;;15.32;47.02
59009;BME280;44794;42.652;23.318;2022-10-16T10:46:38;95414.84;;;15.69;45.98
59009;BME280;44794;42.652;23.318;2022-10-16T10:52:21;95406.38;;;15.76;44.64
59009;BME280;44794;42.652;23.318;2022-10-16T11:00:35;95401.22;;;15.85;42.74
59009;BME280;44794;42.652;23.318;2022-10-16T11:06:04;95392.56;;;16.05;43.21
59009;BME280;44794;42.652;23.318;2022-10-16T11:08:40;95386.81;;;16.11;42.76
59009;BME280;44794;42.652;23.318;2022-10-16T11:11:20;95383.28;;;16.22;42.88
59009;BME280;44794;42.652;23.318;2022-10-16T11:16:35;95383.59;;;16.39;41.63
59009;BME280;44794;42.652;23.318;2022-10-16T11:19:19;95384.94;;;16.34;40.47
59009;BME280;44794;42.652;23.318;2022-10-16T11:21:50;95386.19;;;16.39;41.32
59009;BME280;44794;42.652;23.318;2022-10-16T11:24:42;95376.25;;;16.54;39.58
59009;BME280;44794;42.652;23.318;2022-10-16T11:27:15;95375.31;;;16.64;39.33
59009;BME280;44794;42.652;23.318;2022-10-16T11:30:03;95374.81;;;16.70;38.15
59009;BME280;44794;42.652;23.318;2022-10-16T11:32:54;95384.06;;;16.74;37.26
59009;BME280;44794;42.652;23.318;2022-10-16T11:35:51;95383.88;;;16.66;36.89
59009;BME280;44794;42.652;23.318;2022-10-16T11:40:50;95378.56;;;16.77;38.18
59009;BME280;44794;42.652;23.318;2022-10-16T11:43:26;95377.03;;;16.74;38.13
59009;BME280;44794;42.652;23.318;2022-10-16T11:45:55;95380.84;;;16.91;38.35
59009;BME280;44794;42.652;23.318;2022-10-16T11:48:30;95368.50;;;16.82;39.25
59009;BME280;44794;42.652;23.318;2022-10-16T11:56:24;95375.72;;;16.89;38.49
59009;BME280;44794;42.652;23.318;2022-10-16T12:01:38;95380.91;;;17.10;38.52
59009;BME280;44794;42.652;23.318;2022-10-16T12:07:08;95371.38;;;17.09;39.02
59009;BME280;44794;42.652;23.318;2022-10-16T12:09:40;95373.88;;;17.10;39.32
59009;BME280;44794;42.652;23.318;2022-10-16T12:12:27;95371.69;;;17.15;37.80
59009;BME280;44794;42.652;23.318;2022-10-16T12:15:01;95374.94;;;17.08;37.83
59009;BME280;44794;42.652;23.318;2022-10-16T12:17:36;95379.63;;;17.04;40.30
59009;BME280;44794;42.652;23.318;2022-10-16T12:23:03;95368.56;;;17.01;40.90
59009;BME280;44794;42.652;23.318;2022-10-16T12:25:54;95366.41;;;17.06;41.24
59009;BME280;44794;42.652;23.318;2022-10-16T12:28:27;95368.06;;;17.07;40.13
59009;BME280;44794;42.652;23.318;2022-10-16T12:31:01;95370.25;;;17.11;39.44
59009;BME280;44794;42.652;23.318;2022-10-16T12:33:33;95371.13;;;17.12;40.76
59009;BME280;44794;42.652;23.318;2022-10-16T12:36:01;95376.53;;;17.20;38.14
59009;BME280;44794;42.652;23.318;2022-10-16T12:41:02;95373.97;;;17.29;38.29
59009;BME280;44794;42.652;23.318;2022-10-16T12:46:19;95379.91;;;17.31;37.66
59009;BME280;44794;42.652;23.318;2022-10-16T12:48:46;95381.31;;;17.44;37.24
59009;BME280;44794;42.652;23.318;2022-10-16T12:54:04;95374.72;;;17.50;39.33
59009;BME280;44794;42.652;23.318;2022-10-16T13:02:54;95381.78;;;17.59;39.07
59009;BME280;44794;42.652;23.318;2022-10-16T13:25:28;95382.72;;;17.48;38.45
59009;BME280;44794;42.652;23.318;2022-10-16T13:28:03;95378.69;;;17.44;38.40
59009;BME280;44794;42.652;23.318;2022-10-16T13:30:35;95381.72;;;17.49;39.36
59009;BME280;44794;42.652;23.318;2022-10-16T13:33:07;95379.25;;;17.48;39.00
59009;BME280;44794;42.652;23.318;2022-10-16T13:35:35;95382.41;;;17.42;39.34
59009;BME280;44794;42.652;23.318;2022-10-16T13:38:15;95390.31;;;17.51;39.70
59009;BME280;44794;42.652;23.318;2022-10-16T13:43:39;95392.41;;;17.57;39.72
59009;BME280;44794;42.652;23.318;2022-10-16T13:46:13;95386.19;;;17.58;38.76
59009;BME280;44794;42.652;23.318;2022-10-16T13:48:39;95390.06;;;17.64;38.66
59009;BME280;44794;42.652;23.318;2022-10-16T13:51:25;95386.75;;;17.71;38.42
59009;BME280;44794;42.652;23.318;2022-10-16T13:53:51;95388.16;;;17.66;38.43
59009;BME280;44794;42.652;23.318;2022-10-16T13:56:20;95386.19;;;17.58;39.47
59009;BME280;44794;42.652;23.318;2022-10-16T13:59:00;95390.72;;;17.56;38.94
59009;BME280;44794;42.652;23.318;2022-10-16T14:01:33;95389.09;;;17.55;39.48
59009;BME280;44794;42.652;23.318;2022-10-16T14:04:06;95397.09;;;17.54;38.33
59009;BME280;44794;42.652;23.318;2022-10-16T14:06:33;95388.00;;;17.58;38.75
59009;BME280;44794;42.652;23.318;2022-10-16T14:11:48;95397.38;;;17.51;40.41
59009;BME280;44794;42.652;23.318;2022-10-16T14:14:15;95398.19;;;17.51;40.11
59009;BME280;44794;42.652;23.318;2022-10-16T14:16:42;95395.84;;;17.48;41.14
59009;BME280;44794;42.652;23.318;2022-10-16T14:19:27;95401.06;;;17.39;40.42
59009;BME280;44794;42.652;23.318;2022-10-16T14:21:54;95391.81;;;17.44;40.28
59009;BME280;44794;42.652;23.318;2022-10-16T14:24:37;95407.88;;;17.41;40.11
59009;BME280;44794;42.652;23.318;2022-10-16T14:27:24;95402.44;;;17.33;39.14
59009;BME280;44794;42.652;23.318;2022-10-16T14:30:09;95405.38;;;17.10;39.85
59009;BME280;44794;42.652;23.318;2022-10-16T14:32:40;95406.03;;;17.03;40.57
59009;BME280;44794;42.652;23.318;2022-10-16T14:35:23;95405.94;;;16.84;39.81
59009;BME280;44794;42.652;23.318;2022-10-16T14:37:56;95400.75;;;16.73;40.68
59009;BME280;44794;42.652;23.318;2022-10-16T14:40:25;95410.69;;;16.69;40.55
59009;BME280;44794;42.652;23.318;2022-10-16T14:42:53;95416.81;;;16.59;40.45
59009;BME280;44794;42.652;23.318;2022-10-16T14:45:21;95410.72;;;16.49;40.71
59009;BME280;44794;42.652;23.318;2022-10-16T14:47:50;95421.75;;;16.32;40.94
59009;BME280;44794;42.652;23.318;2022-10-16T14:50:17;95417.84;;;16.27;41.10
59009;BME280;44794;42.652;23.318;2022-10-16T14:52:42;95426.31;;;16.19;41.60
59009;BME280;44794;42.652;23.318;2022-10-16T14:55:09;95423.19;;;16.25;42.01
59009;BME280;44794;42.652;23.318;2022-10-16T14:57:36;95431.88;;;16.05;41.85
59009;BME280;44794;42.652;23.318;2022-10-16T15:00:17;95429.97;;;15.96;42.10